Huvudsida
METAR-TAF:

METAR-TAF

Flygplatser :

Stockholm-Västerås flygplats

Västerås, Sverige

latitud: 59-35N, longitud: 016-38E, höjd: 6 m

Aktuellt väderrapport

Denna rapport gjordes för 15 minuter sedan, klockan 23:50 UTC
Vind 8 kt från ost, varierande mellan ost/nordost och ost/sydost
Temperatur 8°C
Fuktighet 93%
Tryck 1012 hPa
Sikt: 6000 m
fuktdis

METAR: ESOW 182350Z AUTO 08008KT 060V120 6000 BR SCT008/// OVC023/// 08/07 Q1012

Tid: 01:05 (00:05 UTC)

Väderprognos

Denna rapport gjordes för 9 timmar och 56 minuter sedan, klockan 14:09 UTC
Prognos gäller från 18 kl. 14 UTC till 18 kl. 16 UTC
Vind 9 kt från ost/nordost
Sikt: 5000 m
Brutna moln på en höjd av 800 ft
Temporärt
från 18 kl. 14 UTC till 18 kl. 16 UTC
Sikt: 2000 m
Brutna moln på en höjd av 400 ft
lätt duggregn, fuktdis

TAF: ESOW 181409Z 1814/1816 07009KT 5000 BKN008 TEMPO 1814/1816 2000 -DZ BR BKN004

Aktuella väderrapporter och prognoser från 4000 flygplatser (METAR- och TAF-rapporter).

De tillgängliga stationerna syns som gula och röda prickar på kartan.

För musen över prickarna för att se namnen på stationerna.

Klicka sedan för att få väderrapporter och prognoser.

För att ändra kartan: Klicka på de gröna knapparna med ett svart kors på för att zooma in; den gröna knappen med ett streck på för att zooma ut; eller på de gröna pilarna för angränsande kartor.


METAR-TAF: